createdAt,value
2022-10-23T00:00:45.111Z,92.20
2022-10-23T00:05:59.896Z,92.20
2022-10-23T00:10:54.632Z,92.21
2022-10-23T00:15:49.368Z,92.14
2022-10-23T00:20:44.170Z,92.15
2022-10-23T00:25:39.177Z,92.10
2022-10-23T00:30:34.511Z,92.01
2022-10-23T00:35:29.913Z,92.15
2022-10-23T00:40:24.519Z,92.06
2022-10-23T00:45:26.340Z,92.05
2022-10-23T00:50:25.593Z,92.03
2022-10-23T00:55:24.498Z,92.09
2022-10-23T01:00:24.640Z,92.08
2022-10-23T01:05:23.674Z,92.04
2022-10-23T01:10:32.625Z,92.12
2022-10-23T01:15:37.638Z,92.20
2022-10-23T01:20:44.941Z,92.32
2022-10-23T01:26:01.067Z,92.20
2022-10-23T01:31:01.966Z,92.19
2022-10-23T01:36:08.175Z,92.24
2022-10-23T01:41:11.155Z,92.27
2022-10-23T01:46:12.109Z,92.28
2022-10-23T01:51:13.605Z,92.30
2022-10-23T01:56:15.667Z,92.27
2022-10-23T02:01:13.380Z,92.27
2022-10-23T02:06:14.648Z,92.27
2022-10-23T02:11:13.884Z,92.28
2022-10-23T02:16:20.197Z,92.28
2022-10-23T02:21:27.509Z,92.32
2022-10-23T02:26:29.838Z,92.29
2022-10-23T02:31:25.743Z,92.28
2022-10-23T02:36:22.140Z,92.29
2022-10-23T02:41:35.690Z,92.28
2022-10-23T02:46:41.929Z,92.29
2022-10-23T02:51:53.706Z,92.31
2022-10-23T02:57:02.919Z,92.24
2022-10-23T03:02:08.188Z,92.20
2022-10-23T03:07:05.258Z,92.23
2022-10-23T03:12:00.255Z,92.23
2022-10-23T03:16:54.935Z,92.19
2022-10-23T03:21:50.595Z,92.17
2022-10-23T03:26:46.034Z,92.16
2022-10-23T03:31:41.622Z,92.16
2022-10-23T03:36:36.919Z,92.17
2022-10-23T03:41:32.893Z,92.20
2022-10-23T03:46:31.016Z,92.21
2022-10-23T03:51:27.775Z,92.24
2022-10-23T03:56:22.764Z,92.21
2022-10-23T04:01:18.251Z,92.22
2022-10-23T04:06:13.462Z,92.19
2022-10-23T04:11:09.524Z,92.15
2022-10-23T04:16:12.546Z,92.14
2022-10-23T04:21:07.706Z,91.99
2022-10-23T04:26:02.311Z,91.80
2022-10-23T04:30:58.270Z,91.61
2022-10-23T04:35:53.706Z,91.51
2022-10-23T04:40:48.804Z,91.41
2022-10-23T04:45:50.273Z,91.26
2022-10-23T04:50:54.103Z,91.11
2022-10-23T04:56:03.707Z,91.19
2022-10-23T05:01:06.736Z,91.20
2022-10-23T05:06:03.136Z,91.39
2022-10-23T05:11:16.557Z,91.65
2022-10-23T05:16:32.859Z,91.79
2022-10-23T05:21:32.548Z,91.76
2022-10-23T05:26:28.570Z,91.89
2022-10-23T05:31:25.282Z,91.75
2022-10-23T05:36:25.554Z,91.86
2022-10-23T05:41:24.480Z,91.94
2022-10-23T05:46:21.190Z,91.82
2022-10-23T05:51:40.283Z,91.84
2022-10-23T05:57:10.512Z,92.09
2022-10-23T06:02:15.822Z,91.80
2022-10-23T06:07:25.433Z,91.94
2022-10-23T06:12:21.679Z,91.85
2022-10-23T06:17:18.246Z,91.83
2022-10-23T06:22:15.130Z,91.54
2022-10-23T06:27:19.944Z,91.47
2022-10-23T06:32:14.882Z,91.38
2022-10-23T06:37:14.078Z,91.49
2022-10-23T06:42:23.447Z,91.50
2022-10-23T06:47:24.686Z,91.57
2022-10-23T06:52:47.326Z,91.70
2022-10-23T06:57:45.209Z,91.65
2022-10-23T07:02:41.989Z,91.60
2022-10-23T07:07:37.282Z,91.65
2022-10-23T07:12:32.485Z,91.65
2022-10-23T07:18:13.688Z,91.44
2022-10-23T07:23:26.628Z,91.33
2022-10-23T07:28:22.655Z,90.98
2022-10-23T07:33:18.060Z,90.86
2022-10-23T07:38:23.129Z,90.99
2022-10-23T07:43:21.749Z,91.15
2022-10-23T07:48:20.377Z,91.11
2022-10-23T07:53:29.162Z,91.02
2022-10-23T07:58:29.781Z,91.03
2022-10-23T08:03:40.150Z,91.07
2022-10-23T08:08:35.363Z,91.01
2022-10-23T08:13:31.351Z,90.89
2022-10-23T08:18:31.698Z,90.79
2022-10-23T08:23:27.143Z,90.60
2022-10-23T08:28:22.378Z,90.42
2022-10-23T08:33:23.280Z,90.42
2022-10-23T08:38:18.778Z,90.27
2022-10-23T08:43:21.384Z,90.24
2022-10-23T08:48:37.915Z,90.16
2022-10-23T08:54:02.960Z,89.50
2022-10-23T08:59:08.237Z,89.40
2022-10-23T09:04:04.996Z,89.17
2022-10-23T09:09:20.417Z,88.94
2022-10-23T09:14:50.057Z,88.69
2022-10-23T09:19:47.549Z,88.47
2022-10-23T09:24:45.607Z,88.71
2022-10-23T09:29:50.431Z,88.51
2022-10-23T09:34:55.060Z,88.36
2022-10-23T09:40:02.810Z,88.61
2022-10-23T09:44:58.288Z,88.28
2022-10-23T09:49:56.704Z,87.84
2022-10-23T09:54:56.391Z,87.81
2022-10-23T09:59:55.068Z,86.94
2022-10-23T10:04:50.682Z,86.42
2022-10-23T10:09:45.831Z,86.32
2022-10-23T10:14:58.059Z,86.48
2022-10-23T10:20:23.576Z,85.70
2022-10-23T10:25:25.600Z,86.22
2022-10-23T10:30:24.413Z,86.34
2022-10-23T10:35:40.784Z,86.46
2022-10-23T10:40:41.736Z,86.42
2022-10-23T10:45:45.778Z,86.41
2022-10-23T10:50:48.242Z,86.36
2022-10-23T10:55:53.793Z,86.34
2022-10-23T11:00:55.972Z,86.29
2022-10-23T11:05:56.268Z,86.24
2022-10-23T11:10:57.106Z,86.18
2022-10-23T11:15:56.336Z,85.89
2022-10-23T11:21:07.847Z,85.71
2022-10-23T11:26:25.437Z,85.09
2022-10-23T11:31:34.489Z,84.65
2022-10-23T11:36:46.845Z,84.08
2022-10-23T11:41:53.683Z,84.41
2022-10-23T11:46:59.496Z,83.57
2022-10-23T11:52:04.474Z,83.84
2022-10-23T11:57:12.937Z,83.92
2022-10-23T12:02:31.393Z,83.04
2022-10-23T12:07:30.993Z,82.19
2022-10-23T12:12:40.327Z,81.34
2022-10-23T12:17:39.588Z,80.21
2022-10-23T12:22:58.532Z,80.22
2022-10-23T12:28:03.737Z,80.55
2022-10-23T12:33:29.507Z,81.17
2022-10-23T12:38:30.162Z,81.35
2022-10-23T12:43:32.272Z,81.27
2022-10-23T12:48:29.391Z,81.64
2022-10-23T12:53:24.586Z,82.01
2022-10-23T12:58:25.425Z,82.17
2022-10-23T13:03:25.010Z,82.52
2022-10-23T13:08:22.351Z,82.77
2022-10-23T13:13:36.444Z,83.01
2022-10-23T13:18:42.536Z,83.27
2022-10-23T13:23:41.414Z,83.40
2022-10-23T13:28:44.444Z,83.36
2022-10-23T13:33:42.895Z,83.50
2022-10-23T13:38:41.060Z,83.47
2022-10-23T13:43:37.724Z,83.45
2022-10-23T13:48:32.768Z,83.44
2022-10-23T13:53:27.617Z,83.67
2022-10-23T13:58:23.014Z,83.75
2022-10-23T14:03:19.800Z,83.71
2022-10-23T14:08:14.153Z,83.83
2022-10-23T14:13:08.873Z,83.82
2022-10-23T14:18:08.018Z,83.95
2022-10-23T14:23:03.556Z,84.03
2022-10-23T14:28:00.243Z,84.12
2022-10-23T14:32:55.645Z,84.22
2022-10-23T14:37:50.994Z,84.32
2022-10-23T14:42:46.279Z,84.43
2022-10-23T14:47:42.523Z,84.58
2022-10-23T14:52:37.914Z,84.65
2022-10-23T14:57:32.633Z,84.76
2022-10-23T15:02:28.019Z,84.76
2022-10-23T15:07:23.330Z,84.87
2022-10-23T15:12:19.132Z,84.90
2022-10-23T15:17:15.724Z,84.94
2022-10-23T15:22:11.433Z,85.05
2022-10-23T15:27:07.085Z,85.05
2022-10-23T15:32:05.417Z,84.88
2022-10-23T15:37:00.667Z,84.69
2022-10-23T15:41:57.718Z,84.44
2022-10-23T15:46:56.435Z,84.33
2022-10-23T15:51:52.059Z,84.38
2022-10-23T15:56:49.048Z,84.42
2022-10-23T16:01:44.824Z,84.47
2022-10-23T16:06:39.767Z,84.50
2022-10-23T16:11:39.234Z,84.58
2022-10-23T16:16:35.668Z,84.61
2022-10-23T16:21:35.880Z,84.61
2022-10-23T16:26:31.853Z,84.69
2022-10-23T16:31:28.079Z,84.75
2022-10-23T16:36:23.064Z,84.85
2022-10-23T16:41:50.254Z,84.97
2022-10-23T16:46:45.731Z,85.12
2022-10-23T16:51:41.111Z,85.17
2022-10-23T16:56:36.763Z,85.26
2022-10-23T17:01:33.805Z,85.33
2022-10-23T17:06:31.891Z,85.39
2022-10-23T17:11:29.094Z,85.44
2022-10-23T17:16:27.880Z,85.50
2022-10-23T17:21:24.696Z,85.64
2022-10-23T17:26:21.939Z,85.68
2022-10-23T17:31:21.329Z,85.75
2022-10-23T17:36:18.657Z,85.86
2022-10-23T17:41:17.335Z,85.93
2022-10-23T17:46:17.751Z,86.02
2022-10-23T17:51:15.949Z,86.07
2022-10-23T17:56:18.228Z,86.05
2022-10-23T18:01:17.043Z,86.09
2022-10-23T18:06:17.503Z,86.09
2022-10-23T18:11:19.182Z,86.10
2022-10-23T18:16:15.988Z,86.05
2022-10-23T18:21:11.967Z,85.99
2022-10-23T18:26:16.209Z,85.94
2022-10-23T18:31:12.961Z,85.87
2022-10-23T18:36:17.100Z,85.83
2022-10-23T18:41:14.485Z,85.84
2022-10-23T18:46:10.197Z,85.83
2022-10-23T18:51:05.259Z,85.83
2022-10-23T18:56:00.563Z,85.87
2022-10-23T19:00:55.213Z,85.95
2022-10-23T19:05:50.932Z,86.01
2022-10-23T19:10:47.441Z,86.08
2022-10-23T19:15:43.084Z,86.15
2022-10-23T19:20:38.964Z,86.27
2022-10-23T19:25:36.956Z,86.47
2022-10-23T19:30:32.464Z,86.56
2022-10-23T19:35:30.223Z,86.63
2022-10-23T19:40:25.361Z,86.66
2022-10-23T19:45:22.197Z,86.81
2022-10-23T19:50:17.572Z,86.95
2022-10-23T19:55:12.867Z,87.08
2022-10-23T20:00:12.890Z,87.25
2022-10-23T20:05:15.032Z,87.38
2022-10-23T20:10:12.081Z,87.46
2022-10-23T20:15:10.096Z,87.54
2022-10-23T20:20:06.912Z,87.58
2022-10-23T20:25:03.695Z,87.61
2022-10-23T20:29:58.868Z,87.61
2022-10-23T20:34:54.449Z,87.61
2022-10-23T20:39:50.273Z,87.61
2022-10-23T20:44:45.961Z,87.63
2022-10-23T20:49:41.730Z,87.66
2022-10-23T20:54:37.634Z,87.72
2022-10-23T20:59:35.263Z,87.77
2022-10-23T21:04:30.934Z,87.85
2022-10-23T21:09:30.256Z,87.93
2022-10-23T21:14:26.613Z,88.02
2022-10-23T21:19:22.169Z,88.09
2022-10-23T21:24:18.284Z,88.16
2022-10-23T21:29:19.376Z,88.23
2022-10-23T21:34:15.414Z,88.31
2022-10-23T21:39:11.399Z,88.43
2022-10-23T21:44:10.432Z,88.49
2022-10-23T21:49:05.507Z,88.56
2022-10-23T21:54:00.890Z,88.64
2022-10-23T21:58:56.889Z,88.70
2022-10-23T22:03:54.179Z,88.74
2022-10-23T22:08:50.449Z,88.85
2022-10-23T22:13:46.223Z,88.95
2022-10-23T22:18:42.399Z,89.10
2022-10-23T22:23:38.451Z,89.15
2022-10-23T22:28:33.106Z,89.18
2022-10-23T22:33:33.122Z,89.24
2022-10-23T22:38:27.901Z,89.27
2022-10-23T22:43:22.732Z,89.31
2022-10-23T22:48:17.793Z,89.33
2022-10-23T22:53:13.397Z,89.40
2022-10-23T22:58:09.072Z,89.45
2022-10-23T23:03:04.710Z,89.50
2022-10-23T23:07:59.721Z,89.52
2022-10-23T23:12:55.062Z,89.55
2022-10-23T23:17:50.365Z,89.65
2022-10-23T23:22:45.895Z,89.72
2022-10-23T23:27:41.770Z,89.83
2022-10-23T23:32:37.293Z,89.89
2022-10-23T23:37:33.506Z,89.94
2022-10-23T23:42:29.631Z,90.01
2022-10-23T23:52:24.920Z,90.11
2022-10-23T23:57:19.855Z,90.15
